Station Historical Data
Daily Summary for April 8, 2012 Units:  Metric    English   Both
« Previous Day
Next Day »
Daily Weekly Monthly Yearly Custom
  High: Low: Average:
Temperature: 22.1 °C 10.4 °C 15.7 °C
Dew Point: 13.6 °C 6.9 °C 9.5 °C
Humidity: 88% 49% 68%
Wind Speed: 17.7km/h 0km/h 3.2km/h
Wind Gust: 17.7km/h - -
Wind- - WNW
Pressure: 1023.6 hPa 1019.9 hPa -
Precipitation: 0 mm    
Historical Graphs
 
 
Tabular Data for April 8, 2012
Time Temperature Dew Point Pressure Wind Wind Speed Wind Gust Humidity Rainfall Rate (Hourly) Conditions
00:00 14.1 °C 9.9 °C 1020.9 hPa Calm     76% 0 mm
00:01 14 °C 9.8 °C 1020.9 hPa Calm     76% 0 mm
00:06 13.8 °C 9.4 °C 1020.9 hPa ESE 1.6 km/h 1.6 km/h 75% 0 mm
00:11 13.9 °C 9.2 °C 1020.9 hPa Calm   1.6 km/h 73% 0 mm
00:16 13.9 °C 9 °C 1020.9 hPa Calm     72% 0 mm
00:21 13.6 °C 9.2 °C 1021.2 hPa ESE 1.6 km/h 1.6 km/h 75% 0 mm
00:26 13.2 °C 9.1 °C 1020.9 hPa Calm     76% 0 mm
00:31 13.4 °C 8.8 °C 1021.2 hPa Calm     74% 0 mm
00:36 13.3 °C 9.2 °C 1021.2 hPa WNW 3.2 km/h 4.8 km/h 76% 0 mm
00:41 12.5 °C 9.7 °C 1021.6 hPa NNW 3.2 km/h 3.2 km/h 83% 0 mm
00:46 12.1 °C 9.8 °C 1021.6 hPa NNW 3.2 km/h 3.2 km/h 86% 0 mm
00:51 12 °C 9.7 °C 1021.6 hPa NNW 1.6 km/h 3.2 km/h 86% 0 mm
00:56 12.1 °C 9.8 °C 1021.9 hPa Calm   1.6 km/h 86% 0 mm
01:01 12.1 °C 9.8 °C 1021.9 hPa Calm     86% 0 mm
01:06 12 °C 9.6 °C 1021.9 hPa Calm   1.6 km/h 85% 0 mm
01:11 12.2 °C 9.2 °C 1021.9 hPa Calm   1.6 km/h 82% 0 mm
01:16 12.6 °C 8.9 °C 1021.9 hPa Calm     78% 0 mm
01:22 12.8 °C 8.7 °C 1021.9 hPa Calm     76% 0 mm
01:27 13 °C 8.5 °C 1021.9 hPa Calm   1.6 km/h 74% 0 mm
01:32 13.3 °C 8.6 °C 1021.6 hPa Calm   1.6 km/h 73% 0 mm
01:37 13.6 °C 8.4 °C 1021.9 hPa Calm   1.6 km/h 71% 0 mm
01:42 13.6 °C 8.4 °C 1021.9 hPa Calm     71% 0 mm
01:48 13.4 °C 8.3 °C 1021.9 hPa Calm     71% 0 mm
01:53 13.3 °C 8.4 °C 1021.9 hPa Calm     72% 0 mm
01:58 13.4 °C 8.2 °C 1021.9 hPa Calm     71% 0 mm
02:03 13.6 °C 8.4 °C 1021.6 hPa Calm   1.6 km/h 71% 0 mm
02:08 13.6 °C 8.4 °C 1021.6 hPa Calm     71% 0 mm
02:13 13.4 °C 8.1 °C 1021.6 hPa Calm     70% 0 mm
02:18 13.1 °C 8.1 °C 1021.9 hPa NNW 1.6 km/h 1.6 km/h 72% 0 mm
02:23 12.8 °C 8.1 °C 1021.6 hPa WNW 3.2 km/h 4.8 km/h 73% 0 mm
02:28 12.9 °C 8.2 °C 1021.6 hPa NW 3.2 km/h 4.8 km/h 73% 0 mm
02:33 13.1 °C 8 °C 1021.6 hPa NW 1.6 km/h 1.6 km/h 71% 0 mm
02:38 13.2 °C 8.1 °C 1021.6 hPa Calm   3.2 km/h 71% 0 mm
02:43 13.1 °C 8 °C 1021.6 hPa Calm     71% 0 mm
02:49 12.8 °C 7.9 °C 1021.6 hPa Calm     72% 0 mm
02:54 12.5 °C 7.8 °C 1021.6 hPa Calm     73% 0 mm
02:59 12.3 °C 7.8 °C 1021.2 hPa Calm     74% 0 mm
03:04 12 °C 7.7 °C 1021.2 hPa Calm     75% 0 mm
03:09 11.8 °C 8.1 °C 1021.2 hPa Calm     78% 0 mm
03:14 11.6 °C 8.1 °C 1021.2 hPa Calm     79% 0 mm
03:19 11.3 °C 8 °C 1021.2 hPa Calm     80% 0 mm
03:24 11.2 °C 8.1 °C 1020.9 hPa Calm     81% 0 mm
03:29 11.1 °C 7.8 °C 1020.9 hPa Calm     80% 0 mm
03:34 11 °C 7.9 °C 1020.9 hPa Calm     81% 0 mm
03:39 10.8 °C 7.9 °C 1020.9 hPa Calm     82% 0 mm
03:44 10.7 °C 7.6 °C 1020.9 hPa Calm     81% 0 mm
03:49 10.6 °C 7.4 °C 1020.9 hPa Calm     81% 0 mm
03:54 10.6 °C 7.9 °C 1020.9 hPa Calm     84% 0 mm
04:00 10.6 °C 8.5 °C 1020.9 hPa Calm     87% 0 mm
04:05 10.6 °C 8.5 °C 1020.9 hPa Calm   1.6 km/h 87% 0 mm
04:10 10.5 °C 8.1 °C 1020.9 hPa Calm     85% 0 mm
04:15 10.4 °C 8 °C 1020.9 hPa Calm     85% 0 mm
04:20 10.5 °C 7.7 °C 1020.9 hPa Calm     83% 0 mm
04:25 10.7 °C 7.8 °C 1020.9 hPa Calm     82% 0 mm
04:30 10.9 °C 7.8 °C 1020.9 hPa Calm     81% 0 mm
04:35 11.2 °C 7.8 °C 1020.9 hPa NW 1.6 km/h 1.6 km/h 80% 0 mm
04:40 11.3 °C 7.8 °C 1020.9 hPa Calm   1.6 km/h 79% 0 mm
04:45 11.4 °C 7.9 °C 1020.9 hPa Calm     79% 0 mm
04:50 11.4 °C 7.9 °C 1020.9 hPa Calm   1.6 km/h 79% 0 mm
04:55 11.5 °C 8 °C 1020.9 hPa Calm   1.6 km/h 79% 0 mm
05:00 11.6 °C 8.1 °C 1020.9 hPa Calm     79% 0 mm
05:01 11.5 °C 8 °C 1020.9 hPa Calm     79% 0 mm
05:06 11.6 °C 8.1 °C 1020.9 hPa NW 1.6 km/h 1.6 km/h 79% 0 mm
05:11 11.7 °C 8 °C 1020.9 hPa NW 1.6 km/h 1.6 km/h 78% 0 mm
05:16 11.8 °C 8.1 °C 1020.9 hPa Calm   1.6 km/h 78% 0 mm
05:21 11.8 °C 8.1 °C 1020.9 hPa Calm   1.6 km/h 78% 0 mm
05:26 11.7 °C 8.2 °C 1021.2 hPa Calm   1.6 km/h 79% 0 mm
05:31 11.7 °C 8.2 °C 1021.2 hPa Calm   1.6 km/h 79% 0 mm
05:36 11.6 °C 8.1 °C 1021.2 hPa Calm     79% 0 mm
05:41 11.5 °C 8 °C 1021.2 hPa Calm     79% 0 mm
05:46 11.4 °C 8.1 °C 1021.2 hPa Calm     80% 0 mm
05:51 11.4 °C 8.3 °C 1021.2 hPa Calm     81% 0 mm
05:56 11.4 °C 8.4 °C 1021.2 hPa Calm     82% 0 mm
06:01 11.4 °C 8.6 °C 1021.2 hPa Calm     83% 0 mm
06:06 11.3 °C 8.9 °C 1021.2 hPa Calm     85% 0 mm
06:11 11.3 °C 8.7 °C 1021.2 hPa Calm     84% 0 mm
06:16 11.4 °C 8.8 °C 1021.2 hPa Calm     84% 0 mm
06:22 11.4 °C 8.8 °C 1021.2 hPa Calm     84% 0 mm
06:27 11.4 °C 8.8 °C 1021.6 hPa Calm     84% 0 mm
06:32 11.4 °C 9 °C 1021.6 hPa Calm     85% 0 mm
06:38 11.4 °C 9.3 °C 1021.6 hPa NW 1.6 km/h 1.6 km/h 87% 0 mm
06:39 11.4 °C 9.3 °C 1021.6 hPa Calm   1.6 km/h 87% 0 mm
06:44 11.3 °C 9.2 °C 1021.9 hPa NNW 1.6 km/h 1.6 km/h 87% 0 mm
06:49 11.2 °C 9.3 °C 1022.2 hPa Calm   1.6 km/h 88% 0 mm
06:54 11.3 °C 9.2 °C 1021.9 hPa Calm   3.2 km/h 87% 0 mm
06:59 11.4 °C 9 °C 1022.2 hPa WNW 1.6 km/h 3.2 km/h 85% 0 mm
07:00 11.4 °C 9 °C 1022.2 hPa WNW 3.2 km/h 3.2 km/h 85% 0 mm
07:05 11.6 °C 9 °C 1022.2 hPa Calm   1.6 km/h 84% 0 mm
07:10 11.7 °C 8.9 °C 1022.2 hPa Calm   3.2 km/h 83% 0 mm
07:15 11.8 °C 9 °C 1022.2 hPa WNW 1.6 km/h 1.6 km/h 83% 0 mm
07:20 11.8 °C 9.1 °C 1022.2 hPa WNW 1.6 km/h 3.2 km/h 83% 0 mm
07:25 11.9 °C 9 °C 1022.2 hPa WNW 1.6 km/h 3.2 km/h 82% 0 mm
07:31 12 °C 9 °C 1022.2 hPa WNW 1.6 km/h 3.2 km/h 82% 0 mm
07:36 11.9 °C 9 °C 1022.6 hPa WNW 1.6 km/h 1.6 km/h 82% 0 mm
07:42 12 °C 8.8 °C 1022.6 hPa NW 1.6 km/h 4.8 km/h 81% 0 mm
07:47 12 °C 8.8 °C 1022.6 hPa NW 1.6 km/h 3.2 km/h 81% 0 mm
07:52 12 °C 8.8 °C 1022.2 hPa Calm   1.6 km/h 81% 0 mm
07:57 12 °C 8.8 °C 1022.2 hPa Calm     81% 0 mm
08:02 12.1 °C 8.9 °C 1022.2 hPa Calm   1.6 km/h 81% 0 mm
08:08 12.2 °C 9.1 °C 1022.2 hPa NNW 1.6 km/h 1.6 km/h 81% 0 mm
08:13 12.4 °C 9.2 °C 1022.2 hPa NNW 1.6 km/h 1.6 km/h 81% 0 mm
08:18 12.6 °C 9.3 °C 1022.2 hPa NNW 1.6 km/h 1.6 km/h 80% 0 mm
08:23 12.7 °C 9.3 °C 1022.2 hPa Calm     80% 0 mm
08:28 12.8 °C 9.4 °C 1022.2 hPa Calm     80% 0 mm
08:33 12.9 °C 9.6 °C 1022.6 hPa Calm     80% 0 mm
08:38 13.1 °C 9.9 °C 1022.6 hPa WNW 1.6 km/h 1.6 km/h 81% 0 mm
08:43 13.2 °C 10 °C 1022.6 hPa WSW 1.6 km/h 3.2 km/h 81% 0 mm
08:48 13.3 °C 10.3 °C 1022.6 hPa WSW 1.6 km/h 1.6 km/h 82% 0 mm
08:53 13.3 °C 10.7 °C 1022.6 hPa West 1.6 km/h 3.2 km/h 84% 0 mm
08:59 13.2 °C 10.6 °C 1022.6 hPa WSW 1.6 km/h 3.2 km/h 84% 0 mm
09:04 13.2 °C 10.8 °C 1022.9 hPa WSW 1.6 km/h 1.6 km/h 85% 0 mm
09:09 13.2 °C 10.3 °C 1022.6 hPa WSW 1.6 km/h 1.6 km/h 83% 0 mm
09:14 13.2 °C 10.3 °C 1022.6 hPa Calm   1.6 km/h 83% 0 mm
09:19 13.2 °C 10.2 °C 1022.6 hPa Calm   1.6 km/h 82% 0 mm
09:24 13.3 °C 10.3 °C 1022.6 hPa Calm   1.6 km/h 82% 0 mm
09:29 13.4 °C 10.4 °C 1022.6 hPa Calm     82% 0 mm
09:34 13.6 °C 10.4 °C 1022.6 hPa Calm     81% 0 mm
09:39 13.7 °C 10.9 °C 1022.6 hPa WSW 1.6 km/h 1.6 km/h 83% 0 mm
09:44 13.8 °C 11.1 °C 1022.6 hPa West 1.6 km/h 1.6 km/h 84% 0 mm
09:49 13.8 °C 10.6 °C 1022.9 hPa West 1.6 km/h 3.2 km/h 81% 0 mm
09:54 14.1 °C 10.8 °C 1022.6 hPa NW 1.6 km/h 3.2 km/h 81% 0 mm
10:00 14.4 °C 11.2 °C 1022.9 hPa West 3.2 km/h 3.2 km/h 81% 0 mm
10:05 14.8 °C 11.2 °C 1022.6 hPa NW 4.8 km/h 8 km/h 79% 0 mm
10:10 15.3 °C 11.3 °C 1022.6 hPa NW 3.2 km/h 6.4 km/h 77% 0 mm
10:15 15.6 °C 11 °C 1022.9 hPa WNW 3.2 km/h 11.3 km/h 74% 0 mm
10:20 16.1 °C 11 °C 1022.9 hPa NNW 8 km/h 14.5 km/h 72% 0 mm
10:25 16.4 °C 10.9 °C 1022.9 hPa NW 4.8 km/h 9.7 km/h 70% 0 mm
10:30 16.8 °C 11.3 °C 1022.9 hPa NW 1.6 km/h 9.7 km/h 70% 0 mm
10:35 16.9 °C 10.7 °C 1022.9 hPa NNW 4.8 km/h 12.9 km/h 67% 0 mm
10:40 17.1 °C 10.9 °C 1022.9 hPa NW 8 km/h 14.5 km/h 67% 0 mm
10:45 17.3 °C 10.9 °C 1023.2 hPa NW 9.7 km/h 12.9 km/h 66% 0 mm
10:51 17.6 °C 10.9 °C 1023.2 hPa NW 6.4 km/h 12.9 km/h 65% 0 mm
10:56 17.7 °C 11.1 °C 1023.2 hPa WNW 1.6 km/h 9.7 km/h 65% 0 mm
11:01 17.6 °C 10.9 °C 1023.2 hPa NW 3.2 km/h 11.3 km/h 65% 0 mm
11:06 17.5 °C 10.6 °C 1023.2 hPa NW 3.2 km/h 12.9 km/h 64% 0 mm
11:11 17.6 °C 11.4 °C 1023.6 hPa NW 6.4 km/h 8 km/h 67% 0 mm
11:16 17.9 °C 11.2 °C 1023.6 hPa NNW 8 km/h 8 km/h 65% 0 mm
11:21 18.2 °C 11.1 °C 1023.2 hPa NNW 3.2 km/h 8 km/h 63% 0 mm
11:26 18.6 °C 11.2 °C 1023.2 hPa NW 3.2 km/h 8 km/h 62% 0 mm
11:31 18.7 °C 10.2 °C 1023.2 hPa NW 3.2 km/h 8 km/h 58% 0 mm
11:36 18.8 °C 10.6 °C 1023.2 hPa NNW 6.4 km/h 12.9 km/h 59% 0 mm
11:41 18.9 °C 10.8 °C 1023.2 hPa West 4.8 km/h 8 km/h 59% 0 mm
11:46 19.1 °C 10.6 °C 1023.2 hPa WNW 1.6 km/h 14.5 km/h 58% 0 mm
11:51 19.4 °C 10.9 °C 1022.9 hPa NW 11.3 km/h 11.3 km/h 58% 0 mm
11:56 19.6 °C 11.3 °C 1022.9 hPa WNW 4.8 km/h 12.9 km/h 59% 0 mm
12:01 19.6 °C 10.9 °C 1022.9 hPa NW 6.4 km/h 9.7 km/h 57% 0 mm
12:06 19.7 °C 11.4 °C 1022.9 hPa NNE 3.2 km/h 9.7 km/h 59% 0 mm
12:11 20.1 °C 11.1 °C 1022.9 hPa Calm   4.8 km/h 56% 0 mm
12:16 20.4 °C 11.6 °C 1022.9 hPa North 9.7 km/h 9.7 km/h 57% 0 mm
12:22 20.4 °C 10.6 °C 1022.9 hPa NNE 6.4 km/h 8 km/h 53% 0 mm
12:27 20.4 °C 10.6 °C 1022.9 hPa WNW 6.4 km/h 9.7 km/h 53% 0 mm
12:32 20.5 °C 10 °C 1022.6 hPa NE 4.8 km/h 9.7 km/h 51% 0 mm
12:37 20.4 °C 10.8 °C 1022.6 hPa WNW 3.2 km/h 8 km/h 54% 0 mm
12:42 20.1 °C 10.5 °C 1022.6 hPa NW 6.4 km/h 9.7 km/h 54% 0 mm
12:47 19.9 °C 10.9 °C 1022.6 hPa West 1.6 km/h 11.3 km/h 56% 0 mm
12:52 20.2 °C 10.1 °C 1022.6 hPa ENE 3.2 km/h 6.4 km/h 52% 0 mm
12:54 20.2 °C 9.8 °C 1022.6 hPa NW 4.8 km/h 8 km/h 51% 0 mm
13:00 20.4 °C 10 °C 1022.6 hPa North 6.4 km/h 8 km/h 51% 0 mm
13:05 20.7 °C 9.9 °C 1022.6 hPa NW 4.8 km/h 9.7 km/h 50% 0 mm
13:10 20.9 °C 11 °C 1022.6 hPa North 4.8 km/h 16.1 km/h 53% 0 mm
13:15 21.1 °C 11.7 °C 1022.6 hPa NNW 6.4 km/h 9.7 km/h 55% 0 mm
13:20 20.7 °C 9.9 °C 1022.6 hPa WNW 6.4 km/h 11.3 km/h 50% 0 mm
13:25 20.6 °C 10.1 °C 1022.6 hPa NW 12.9 km/h 14.5 km/h 51% 0 mm
13:30 20.3 °C 9.9 °C 1022.2 hPa WNW 3.2 km/h 9.7 km/h 51% 0 mm
13:35 20.8 °C 11.9 °C 1022.2 hPa WNW 9.7 km/h 14.5 km/h 57% 0 mm
13:40 20.8 °C 10.3 °C 1022.2 hPa NW 4.8 km/h 14.5 km/h 51% 0 mm
13:46 21 °C 10.5 °C 1022.2 hPa WNW 9.7 km/h 12.9 km/h 51% 0 mm
13:51 21.1 °C 10.6 °C 1022.2 hPa WNW 11.3 km/h 14.5 km/h 51% 0 mm
13:56 20.7 °C 9.6 °C 1022.2 hPa WNW 9.7 km/h 14.5 km/h 49% 0 mm
14:01 20.7 °C 11.1 °C 1022.2 hPa NW 11.3 km/h 16.1 km/h 54% 0 mm
14:06 20.8 °C 10.8 °C 1022.2 hPa NNW 8 km/h 9.7 km/h 53% 0 mm
14:12 20.8 °C 11.4 °C 1021.9 hPa NNW 9.7 km/h 12.9 km/h 55% 0 mm
14:17 20.7 °C 10.4 °C 1021.9 hPa West 3.2 km/h 17.7 km/h 52% 0 mm
14:22 20.6 °C 10.9 °C 1021.9 hPa NW 8 km/h 14.5 km/h 54% 0 mm
14:27 20.7 °C 12.1 °C 1021.9 hPa NW 11.3 km/h 12.9 km/h 58% 0 mm
14:32 20.9 °C 12.1 °C 1021.9 hPa NW 4.8 km/h 11.3 km/h 57% 0 mm
14:37 20.9 °C 10.4 °C 1021.6 hPa WNW 4.8 km/h 9.7 km/h 51% 0 mm
14:42 20.9 °C 11 °C 1021.6 hPa WNW 11.3 km/h 14.5 km/h 53% 0 mm
14:47 21.1 °C 11.2 °C 1021.6 hPa NW 4.8 km/h 11.3 km/h 53% 0 mm
14:52 21 °C 11.1 °C 1021.6 hPa NNW 9.7 km/h 9.7 km/h 53% 0 mm
14:57 21.2 °C 11.6 °C 1021.6 hPa NNW 4.8 km/h 12.9 km/h 54% 0 mm
15:03 21.2 °C 12.1 °C 1021.6 hPa NNW 4.8 km/h 14.5 km/h 56% 0 mm
15:08 21.3 °C 11.9 °C 1021.6 hPa NW 6.4 km/h 9.7 km/h 55% 0 mm
15:13 21.4 °C 12.3 °C 1021.6 hPa NW 8 km/h 12.9 km/h 56% 0 mm
15:18 21.2 °C 11.8 °C 1021.6 hPa NW 8 km/h 11.3 km/h 55% 0 mm
15:23 21.2 °C 11.2 °C 1021.2 hPa West 4.8 km/h 9.7 km/h 53% 0 mm
15:28 20.9 °C 11.8 °C 1021.2 hPa NW 6.4 km/h 12.9 km/h 56% 0 mm
15:33 20.8 °C 12.3 °C 1021.2 hPa NNW 9.7 km/h 14.5 km/h 58% 0 mm
15:38 21.1 °C 12.3 °C 1021.2 hPa NNW 14.5 km/h 14.5 km/h 57% 0 mm
15:43 21.2 °C 13.2 °C 1021.2 hPa West 6.4 km/h 16.1 km/h 60% 0 mm
15:48 21.3 °C 12.7 °C 1021.2 hPa WNW 8 km/h 14.5 km/h 58% 0 mm
15:53 20.9 °C 12.1 °C 1020.9 hPa WNW 12.9 km/h 14.5 km/h 57% 0 mm
15:58 20.9 °C 12.4 °C 1020.9 hPa NW 4.8 km/h 14.5 km/h 58% 0 mm
16:04 21.1 °C 12.5 °C 1020.9 hPa NW 8 km/h 17.7 km/h 58% 0 mm
16:09 21.4 °C 11.7 °C 1020.5 hPa NW 6.4 km/h 16.1 km/h 54% 0 mm
16:14 21.6 °C 12.4 °C 1020.5 hPa NNW 17.7 km/h 17.7 km/h 56% 0 mm
16:19 21.7 °C 11.9 °C 1020.5 hPa NNW 8 km/h 9.7 km/h 54% 0 mm
16:24 21.9 °C 13.6 °C 1020.2 hPa NW 9.7 km/h 16.1 km/h 59% 0 mm
16:29 22.1 °C 12.7 °C 1020.5 hPa NNW 11.3 km/h 14.5 km/h 55% 0 mm
16:34 21.8 °C 12.1 °C 1020.2 hPa WNW 8 km/h 14.5 km/h 54% 0 mm
16:39 21.7 °C 11.9 °C 1020.2 hPa WNW 6.4 km/h 17.7 km/h 54% 0 mm
16:44 21.5 °C 12.6 °C 1020.5 hPa WNW 11.3 km/h 12.9 km/h 57% 0 mm
16:46 21.4 °C 12.3 °C 1020.5 hPa NW 8 km/h 16.1 km/h 56% 0 mm
16:52 21.2 °C 11.8 °C 1020.5 hPa West 11.3 km/h 14.5 km/h 55% 0 mm
16:57 21.2 °C 11.5 °C 1020.5 hPa WNW 9.7 km/h 14.5 km/h 54% 0 mm
17:02 21.3 °C 11.6 °C 1020.5 hPa NNW 12.9 km/h 14.5 km/h 54% 0 mm
17:07 21.4 °C 12.5 °C 1020.5 hPa NW 16.1 km/h 16.1 km/h 57% 0 mm
17:12 21.3 °C 12.2 °C 1020.5 hPa NNW 9.7 km/h 16.1 km/h 56% 0 mm
17:17 21.2 °C 11.2 °C 1020.2 hPa NNW 14.5 km/h 17.7 km/h 53% 0 mm
17:22 21.1 °C 12 °C 1020.2 hPa NW 8 km/h 9.7 km/h 56% 0 mm
17:27 20.9 °C 11.2 °C 1020.2 hPa NW 12.9 km/h 14.5 km/h 54% 0 mm
17:32 20.7 °C 11.7 °C 1020.2 hPa NW 9.7 km/h 14.5 km/h 56% 0 mm
17:37 20.6 °C 11.2 °C 1020.2 hPa NNW 9.7 km/h 11.3 km/h 55% 0 mm
17:42 20.4 °C 11.7 °C 1020.2 hPa NNW 3.2 km/h 9.7 km/h 57% 0 mm
17:47 20.4 °C 10.8 °C 1020.2 hPa NW 9.7 km/h 12.9 km/h 54% 0 mm
17:52 20.3 °C 10.7 °C 1020.2 hPa NNW 8 km/h 14.5 km/h 54% 0 mm
17:57 20.2 °C 10 °C 1020.2 hPa NNW 9.7 km/h 14.5 km/h 52% 0 mm
18:03 20.1 °C 10.4 °C 1020.2 hPa WNW 6.4 km/h 9.7 km/h 54% 0 mm
18:08 20 °C 10.1 °C 1020.2 hPa NNW 9.7 km/h 12.9 km/h 53% 0 mm
18:13 19.9 °C 10.3 °C 1020.2 hPa NW 4.8 km/h 9.7 km/h 54% 0 mm
18:18 19.8 °C 9.7 °C 1020.2 hPa NNW 8 km/h 12.9 km/h 52% 0 mm
18:23 19.7 °C 9.9 °C 1020.2 hPa NW 6.4 km/h 14.5 km/h 53% 0 mm
18:28 19.7 °C 9.6 °C 1020.2 hPa NNW 9.7 km/h 12.9 km/h 52% 0 mm
18:33 19.6 °C 9.7 °C 1020.2 hPa NNW 9.7 km/h 11.3 km/h 53% 0 mm
18:38 19.5 °C 9.7 °C 1020.2 hPa NNW 11.3 km/h 14.5 km/h 53% 0 mm
18:44 19.3 °C 9.2 °C 1020.2 hPa NNW 6.4 km/h 14.5 km/h 52% 0 mm
18:49 19.2 °C 9.4 °C 1020.2 hPa NW 8 km/h 14.5 km/h 53% 0 mm
18:54 19.1 °C 9.3 °C 1020.2 hPa NNW 6.4 km/h 12.9 km/h 53% 0 mm
18:59 19 °C 9.5 °C 1020.2 hPa NNW 6.4 km/h 9.7 km/h 54% 0 mm
19:04 18.9 °C 8.8 °C 1019.9 hPa NW 6.4 km/h 16.1 km/h 52% 0 mm
19:09 18.8 °C 9 °C 1019.9 hPa NNE 4.8 km/h 9.7 km/h 53% 0 mm
19:14 18.6 °C 8.8 °C 1019.9 hPa NNW 6.4 km/h 8 km/h 53% 0 mm
19:19 18.5 °C 8.2 °C 1019.9 hPa NNW 3.2 km/h 9.7 km/h 51% 0 mm
19:24 18.3 °C 8.1 °C 1019.9 hPa NNW 4.8 km/h 11.3 km/h 51% 0 mm
19:29 18.2 °C 8.2 °C 1019.9 hPa NNW 4.8 km/h 8 km/h 52% 0 mm
19:34 18.1 °C 8.1 °C 1019.9 hPa NNW 3.2 km/h 9.7 km/h 52% 0 mm
19:40 17.9 °C 8.2 °C 1019.9 hPa NW 1.6 km/h 4.8 km/h 53% 0 mm
19:45 17.7 °C 8.1 °C 1019.9 hPa NW 1.6 km/h 4.8 km/h 53% 0 mm
19:50 17.6 °C 8.2 °C 1019.9 hPa NW 1.6 km/h 3.2 km/h 54% 0 mm
19:55 17.4 °C 8.3 °C 1019.9 hPa NW 1.6 km/h 3.2 km/h 55% 0 mm
20:00 17.4 °C 8.3 °C 1019.9 hPa NW 1.6 km/h 3.2 km/h 55% 0 mm
20:05 17.3 °C 8.2 °C 1019.9 hPa NW 4.8 km/h 4.8 km/h 55% 0 mm
20:10 17.1 °C 8.3 °C 1019.9 hPa NW 1.6 km/h 3.2 km/h 56% 0 mm
20:16 16.9 °C 8.1 °C 1019.9 hPa NW 1.6 km/h 3.2 km/h 56% 0 mm
20:21 16.8 °C 8 °C 1019.9 hPa NW 1.6 km/h 1.6 km/h 56% 0 mm
20:26 16.6 °C 8.1 °C 1019.9 hPa Calm   1.6 km/h 57% 0 mm
20:31 16.4 °C 7.9 °C 1019.9 hPa Calm   1.6 km/h 57% 0 mm
20:36 16.3 °C 8 °C 1019.9 hPa Calm   1.6 km/h 58% 0 mm
20:41 16 °C 7.8 °C 1019.9 hPa Calm     58% 0 mm
20:46 15.8 °C 7.6 °C 1019.9 hPa Calm     58% 0 mm
20:51 15.6 °C 7.8 °C 1019.9 hPa Calm     60% 0 mm
20:56 15.4 °C 7.4 °C 1019.9 hPa NNW 3.2 km/h 3.2 km/h 59% 0 mm
21:02 15.6 °C 7.6 °C 1020.2 hPa North 1.6 km/h 3.2 km/h 59% 0 mm
21:06 15.5 °C 7.5 °C 1020.2 hPa Calm   1.6 km/h 59% 0 mm
21:12 15.4 °C 7.7 °C 1020.2 hPa Calm   1.6 km/h 60% 0 mm
21:17 15.2 °C 7.5 °C 1020.2 hPa Calm   1.6 km/h 60% 0 mm
21:22 15.1 °C 7.8 °C 1020.2 hPa NNW 1.6 km/h 1.6 km/h 62% 0 mm
21:27 14.7 °C 7.8 °C 1020.2 hPa Calm   1.6 km/h 63% 0 mm
21:32 14.4 °C 7.7 °C 1020.2 hPa Calm     64% 0 mm
21:37 14.2 °C 7.7 °C 1020.5 hPa Calm     65% 0 mm
21:42 14.1 °C 7.8 °C 1020.5 hPa Calm     66% 0 mm
21:47 14.1 °C 7.8 °C 1020.2 hPa NNE 1.6 km/h 1.6 km/h 66% 0 mm
21:52 14.1 °C 7.9 °C 1020.2 hPa Calm     66% 0 mm
21:57 13.8 °C 8 °C 1020.5 hPa Calm     68% 0 mm
22:02 13.4 °C 7.8 °C 1020.5 hPa Calm     69% 0 mm
22:07 13.1 °C 7.6 °C 1020.5 hPa NNE 1.6 km/h 1.6 km/h 69% 0 mm
22:12 13.3 °C 7.9 °C 1020.5 hPa NNE 1.6 km/h 1.6 km/h 70% 0 mm
22:17 13.3 °C 8 °C 1020.5 hPa Calm     70% 0 mm
22:22 13.1 °C 7.9 °C 1020.5 hPa Calm     71% 0 mm
22:27 12.8 °C 7.7 °C 1020.9 hPa Calm     71% 0 mm
22:33 12.7 °C 7.8 °C 1020.5 hPa Calm     72% 0 mm
22:38 12.3 °C 7.8 °C 1020.5 hPa Calm     74% 0 mm
22:43 12.3 °C 7.8 °C 1020.5 hPa Calm     74% 0 mm
22:48 12.3 °C 8.2 °C 1020.9 hPa Calm     76% 0 mm
22:53 12.1 °C 7.8 °C 1020.9 hPa Calm     75% 0 mm
22:58 12.2 °C 7.9 °C 1020.9 hPa Calm     75% 0 mm
23:03 12.2 °C 7.7 °C 1020.9 hPa Calm     74% 0 mm
23:08 12.2 °C 7.7 °C 1020.9 hPa Calm     74% 0 mm
23:13 12.2 °C 7.5 °C 1020.9 hPa Calm     73% 0 mm
23:18 12.3 °C 7.6 °C 1020.9 hPa Calm   1.6 km/h 73% 0 mm
23:23 12.3 °C 7.7 °C 1020.9 hPa North 1.6 km/h 3.2 km/h 73% 0 mm
23:28 12.3 °C 7.7 °C 1020.9 hPa NNW 3.2 km/h 3.2 km/h 73% 0 mm
23:34 12.4 °C 7.5 °C 1020.9 hPa NNE 3.2 km/h 4.8 km/h 72% 0 mm
23:39 12.4 °C 7.3 °C 1020.9 hPa NNE 3.2 km/h 4.8 km/h 71% 0 mm
23:44 12.4 °C 7.3 °C 1020.9 hPa NNW 1.6 km/h 3.2 km/h 71% 0 mm
23:49 12.4 °C 7.1 °C 1020.9 hPa NNW 1.6 km/h 3.2 km/h 70% 0 mm
23:54 12.4 °C 7.1 °C 1020.9 hPa NNW 1.6 km/h 3.2 km/h 70% 0 mm
23:59 12.4 °C 6.9 °C 1020.9 hPa NNW 4.8 km/h 4.8 km/h 69% 0 mm
Compliments of Weather Underground